Cayce, South Carolina
Current Conditions -  °F | °C
As of 6:53 PM on Sunday 21 Dec 2014 (Local Time) from KCUB Reporting Station
Light Rain Light Rain  
Wind Chill: 52°   Ceiling: 5000
Heat Index: 52°   Visibility: 8mi
Dew Point: 41°   Wind: 5mph
Humidity: 66%   Direction: 70°ENE
Pressure: 30.18"   Gusts: NA
Location:  33.97°N, 81.05°W
Report Text: KCUB 212353Z AUTO 07004KT 8SM -RA OVC050 11/05 A3018 RMK AO2 RAB49 SLP221 P0000 60000 T01110050 10133 20111 53002
Loading
Personal Weather Stations






























Interactive Weather Map New forecast layout! Learn more

10-Day Weather Forecast

Advertisements
Track Severe Weather on mobile